Huvudsida
METAR-TAF:

METAR-TAF

Flygplatser :

Saint-Yan, Frankrike

latitud: 46-24-45N, longitud: 004-00-48E, höjd: 244 m

Aktuellt väderrapport

Denna rapport gjordes för 18 minuter sedan, klockan 14:00 UTC
Vind 9 kt från nord, varierande mellan nord/nordväst och nordost
Temperatur 3°C
Fuktighet 87%
Tryck 1022 hPa
Sikt 10 km eller mer
Mulet på en höjd av 1300 ft
lätt regn

METAR: LFLN 291400Z AUTO 35009KT 330V040 9999 -RA OVC013 03/01 Q1022

Tid: 16:18 (14:18 UTC)


TAF: saknas

Aktuella väderrapporter och prognoser från 4000 flygplatser (METAR- och TAF-rapporter).

De tillgängliga stationerna syns som gula och röda prickar på kartan.

För musen över prickarna för att se namnen på stationerna.

Klicka sedan för att få väderrapporter och prognoser.

För att ändra kartan: Klicka på de gröna knapparna med ett svart kors på för att zooma in; den gröna knappen med ett streck på för att zooma ut; eller på de gröna pilarna för angränsande kartor.


METAR-TAF: